Time;durP1;ratioP1;P1;durP2;ratioP2;P2;SDS_P1;SDS_P2;PMS_P1;PMS_P2;Temp;Humidity;BMP_temperature;BMP_pressure;BME280_temperature;BME280_humidity;BME280_pressure;Samples;Min_cycle;Max_cycle;Signal;HPM_P1;HPM_P2
2021/07/08 00:01:06;;;;;;;3.50;1.27;;;17.10;93.50;;;20.60;78.34;101864.31;5026481;27;96961;-76
2021/07/08 00:03:37;;;;;;;3.72;0.77;;;17.10;93.60;;;20.64;79.11;101857.84;5004751;28;98200;-76
2021/07/08 00:06:05;;;;;;;0.47;0.47;;;17.10;93.60;;;20.75;78.63;101856.25;5001499;28;97878;-76
2021/07/08 00:08:34;;;;;;;0.75;0.75;;;17.10;93.70;;;20.78;78.89;101854.75;5023974;28;96913;-76
2021/07/08 00:11:05;;;;;;;4.28;0.77;;;17.10;93.70;;;20.75;78.54;101853.53;4991676;28;96996;-76
2021/07/08 00:13:33;;;;;;;3.75;1.08;;;17.10;93.70;;;20.71;79.35;101855.31;5035927;27;96863;-76
2021/07/08 00:16:05;;;;;;;1.00;0.88;;;17.10;93.70;;;20.68;79.15;101861.47;5003676;28;97677;-76
2021/07/08 00:18:36;;;;;;;3.70;1.48;;;17.10;93.70;;;20.71;79.39;101852.59;5005206;28;96762;-76
2021/07/08 00:21:05;;;;;;;0.85;0.60;;;17.10;93.70;;;20.68;79.34;101857.97;5003796;28;96895;-76
2021/07/08 00:23:33;;;;;;;1.48;0.65;;;17.10;94.00;;;20.66;79.36;101863.75;5007502;28;97026;-76
2021/07/08 00:26:05;;;;;;;3.40;1.85;;;17.10;93.70;;;20.60;79.60;101862.38;5001350;28;98114;-76
2021/07/08 00:28:34;;;;;;;2.92;0.93;;;17.10;93.70;;;20.58;79.22;101865.78;5003880;28;96868;-76
2021/07/08 00:31:04;;;;;;;3.42;2.67;;;17.10;93.70;;;20.59;79.78;101866.25;4999189;28;97065;-76
2021/07/08 00:33:33;;;;;;;0.73;0.73;;;17.10;93.70;;;20.55;78.69;101861.81;5005216;28;97008;-76
2021/07/08 00:36:05;;;;;;;1.08;0.95;;;17.10;93.60;;;20.59;79.19;101855.34;5004769;28;97532;-76
2021/07/08 00:38:34;;;;;;;2.10;1.13;;;17.10;93.70;;;20.57;79.67;101853.31;5003869;28;96923;-76
2021/07/08 00:41:04;;;;;;;0.70;0.70;;;17.10;93.60;;;20.54;78.79;101845.81;4990781;28;96915;-76
2021/07/08 00:43:33;;;;;;;3.40;2.47;;;17.10;93.60;;;20.54;78.12;101840.38;5003849;28;97948;-76
2021/07/08 00:46:05;;;;;;;2.55;1.52;;;17.00;93.60;;;20.49;78.92;101840.63;4988474;28;97791;-76
2021/07/08 00:48:34;;;;;;;5.22;1.02;;;17.00;93.70;;;20.46;79.22;101841.28;5004072;28;96813;-76
2021/07/08 00:51:06;;;;;;;0.82;0.80;;;17.00;93.60;;;20.39;78.79;101849.22;5006060;28;97126;-76
2021/07/08 00:53:35;;;;;;;0.90;0.67;;;17.00;93.60;;;20.39;78.85;101855.47;5004304;28;96780;-76
2021/07/08 00:56:06;;;;;;;1.15;1.05;;;16.90;93.50;;;20.39;78.65;101850.03;5007417;27;97318;-76
2021/07/08 00:58:35;;;;;;;0.63;0.63;;;16.90;93.60;;;20.42;79.19;101854.78;5037799;27;96834;-76
2021/07/08 01:01:06;;;;;;;0.30;0.30;;;16.80;93.50;;;20.45;78.19;101853.31;5007108;28;97012;-76
2021/07/08 01:03:37;;;;;;;1.95;0.85;;;16.80;93.50;;;20.41;78.39;101847.75;5001551;28;98297;-76
2021/07/08 01:06:07;;;;;;;0.90;0.90;;;16.80;93.50;;;20.29;78.96;101844.22;5004528;28;97469;-76
2021/07/08 01:08:36;;;;;;;0.38;0.38;;;16.80;93.50;;;20.23;78.52;101853.75;5036394;27;96900;-76
2021/07/08 01:11:05;;;;;;;2.83;1.42;;;16.70;93.50;;;20.19;78.32;101861.78;5005358;28;97059;-76
2021/07/08 01:13:34;;;;;;;2.33;0.85;;;16.70;93.60;;;20.24;78.40;101858.06;5004328;28;97301;-76
2021/07/08 01:16:09;;;;;;;7.32;1.52;;;16.70;93.60;;;20.13;78.84;101859.66;5003542;28;96818;-77
2021/07/08 01:18:39;;;;;;;0.95;0.93;;;16.60;93.60;;;20.14;78.82;101866.69;5005327;28;96817;-76
2021/07/08 01:21:26;;;;;;;1.38;1.27;;;16.60;93.70;;;20.16;79.88;101875.31;5005562;28;97328;-76
2021/07/08 01:23:58;;;;;;;1.52;0.90;;;16.60;93.70;;;20.17;79.88;101860.56;5004316;28;98082;-76
2021/07/08 01:26:27;;;;;;;1.30;0.65;;;16.70;93.90;;;20.26;79.46;101858.53;5024469;27;96750;-76
2021/07/08 01:28:57;;;;;;;1.75;1.63;;;16.70;93.90;;;20.31;79.64;101863.75;5002480;28;96768;-76
2021/07/08 01:31:27;;;;;;;0.85;0.85;;;16.70;94.00;;;20.41;79.52;101855.91;5003709;28;96883;-76
2021/07/08 01:33:56;;;;;;;1.42;1.05;;;16.80;94.00;;;20.41;79.95;101855.91;5005989;28;98652;-76
2021/07/08 01:36:26;;;;;;;1.65;0.93;;;16.80;94.30;;;20.42;79.16;101856.72;5004392;28;96815;-76
2021/07/08 01:38:55;;;;;;;1.35;1.25;;;16.80;93.90;;;20.34;78.72;101857.63;5016627;28;96740;-76
2021/07/08 01:41:24;;;;;;;3.17;1.15;;;16.80;93.80;;;20.27;79.49;101869.09;5003803;28;97048;-76
2021/07/08 01:43:55;;;;;;;0.82;0.70;;;16.80;93.80;;;20.20;78.17;101860.66;5005102;28;97859;-76
2021/07/08 01:46:24;;;;;;;1.10;1.00;;;16.70;93.70;;;20.16;78.83;101857.03;5007875;28;97674;-76
2021/07/08 01:48:58;;;;;;;7.53;1.73;;;16.70;93.60;;;20.14;79.20;101855.78;5003789;28;97164;-76
2021/07/08 01:51:32;;;;;;;1.00;0.65;;;16.60;93.60;;;20.05;78.73;101860.53;5026165;27;96990;-76
2021/07/08 01:54:04;;;;;;;2.05;1.83;;;16.60;93.60;;;20.02;79.32;101862.00;5003618;28;97889;-76
2021/07/08 01:56:33;;;;;;;2.83;0.68;;;16.50;93.60;;;20.03;78.51;101860.88;5004272;28;97937;-76
2021/07/08 01:59:04;;;;;;;0.30;0.30;;;16.50;93.60;;;20.00;78.60;101858.81;5006815;28;97245;-76
2021/07/08 02:01:33;;;;;;;1.98;1.30;;;16.50;93.60;;;19.91;79.08;101860.81;5002781;28;96829;-76
2021/07/08 02:04:03;;;;;;;5.25;0.98;;;16.40;93.70;;;19.96;79.33;101865.25;5000788;28;97675;-76
2021/07/08 02:06:33;;;;;;;5.00;1.60;;;16.40;93.70;;;19.93;78.94;101868.63;5005798;28;97532;-76
2021/07/08 02:09:04;;;;;;;1.52;1.38;;;16.40;93.70;;;19.96;78.64;101859.81;5005695;28;97047;-76
2021/07/08 02:11:34;;;;;;;5.15;1.10;;;16.40;93.70;;;19.89;79.02;101868.50;5019974;28;96891;-76
2021/07/08 02:14:06;;;;;;;1.35;1.25;;;16.40;93.70;;;19.90;79.08;101861.16;5000581;28;100482;-76
2021/07/08 02:16:36;;;;;;;0.68;0.63;;;16.30;93.70;;;19.90;79.15;101855.72;5004034;28;97596;-76
2021/07/08 02:19:07;;;;;;;3.58;1.10;;;16.30;93.80;;;19.91;78.82;101854.59;5025240;27;97331;-76
2021/07/08 02:21:38;;;;;;;2.58;1.48;;;16.30;93.80;;;19.85;78.37;101855.94;5005190;28;96885;-76
2021/07/08 02:24:07;;;;;;;0.40;0.40;;;16.30;93.80;;;19.81;79.50;101857.72;5005673;28;97498;-76
2021/07/08 02:26:35;;;;;;;0.80;0.80;;;16.30;93.80;;;19.76;79.01;101857.94;5004038;28;96849;-76
2021/07/08 02:29:04;;;;;;;0.82;0.82;;;16.20;93.70;;;19.70;78.84;101853.84;5005123;28;96788;-76
2021/07/08 02:31:33;;;;;;;1.48;0.60;;;16.20;93.70;;;19.62;78.93;101852.78;4987618;28;97023;-76
2021/07/08 02:34:04;;;;;;;3.75;0.70;;;16.20;93.70;;;19.57;79.02;101849.50;5004351;28;96957;-76
2021/07/08 02:36:33;;;;;;;0.95;0.50;;;16.10;93.70;;;19.55;79.14;101849.03;5003848;28;96782;-76
2021/07/08 02:39:06;;;;;;;0.55;0.55;;;16.10;93.70;;;19.55;79.05;101847.09;5002486;28;96938;-76
2021/07/08 02:41:35;;;;;;;0.73;0.73;;;16.10;93.70;;;19.52;78.36;101853.22;4998139;28;97821;-76
2021/07/08 02:44:05;;;;;;;0.40;0.35;;;16.10;93.70;;;19.51;78.63;101856.25;5004598;28;96846;-76
2021/07/08 02:46:34;;;;;;;2.28;1.30;;;16.00;93.70;;;19.50;78.59;101858.19;5002832;28;97666;-76
2021/07/08 02:49:04;;;;;;;0.65;0.65;;;16.00;93.70;;;19.42;78.82;101856.34;5035841;27;99631;-76
2021/07/08 02:51:34;;;;;;;1.73;0.82;;;16.00;93.70;;;19.43;79.26;101859.84;5010848;28;97150;-77
2021/07/08 02:54:05;;;;;;;0.90;0.90;;;16.00;93.70;;;19.39;78.95;101848.88;5002223;28;97314;-77
2021/07/08 02:56:34;;;;;;;3.40;1.90;;;15.90;94.00;;;19.38;79.22;101858.16;5018836;28;97399;-77
2021/07/08 02:59:04;;;;;;;0.35;0.35;;;15.90;93.70;;;19.35;79.18;101849.84;4991325;28;96771;-75
2021/07/08 03:01:33;;;;;;;0.63;0.63;;;15.90;93.70;;;19.34;78.80;101845.53;5005346;28;97078;-76
2021/07/08 03:04:05;;;;;;;6.03;1.05;;;15.90;93.70;;;19.33;79.42;101852.09;5005306;28;97977;-76
2021/07/08 03:06:34;;;;;;;0.50;0.50;;;15.90;93.70;;;19.28;79.00;101836.00;5006357;28;97827;-77
2021/07/08 03:09:06;;;;;;;1.13;1.05;;;15.80;93.70;;;19.27;79.19;101846.06;5005206;28;97174;-77
2021/07/08 03:11:35;;;;;;;1.17;1.10;;;15.80;93.70;;;19.23;79.30;101847.88;5034688;27;97343;-77
2021/07/08 03:14:05;;;;;;;0.65;0.20;;;15.80;93.70;;;19.27;78.67;101854.22;5005165;28;97857;-75
2021/07/08 03:16:34;;;;;;;0.88;0.57;;;15.80;93.70;;;19.29;79.06;101853.91;5006218;28;98070;-75
2021/07/08 03:19:04;;;;;;;1.33;1.23;;;15.80;93.70;;;19.24;78.58;101864.97;5004761;28;96978;-77
2021/07/08 03:21:33;;;;;;;6.40;1.40;;;15.70;93.70;;;19.21;78.96;101863.72;5008635;28;96914;-77
2021/07/08 03:24:04;;;;;;;4.13;2.47;;;15.70;93.70;;;19.17;78.48;101857.34;5007931;28;98429;-77
2021/07/08 03:26:34;;;;;;;1.02;0.77;;;15.70;93.70;;;19.16;78.92;101863.09;5008199;28;97877;-77
2021/07/08 03:29:04;;;;;;;0.55;0.32;;;15.70;93.70;;;19.10;79.29;101865.22;5026755;27;97194;-77
2021/07/08 03:31:33;;;;;;;1.67;1.27;;;15.60;93.60;;;19.11;78.58;101863.28;5004261;28;96820;-77
2021/07/08 03:34:05;;;;;;;1.42;1.33;;;15.60;93.60;;;19.15;78.46;101869.63;5009974;28;97375;-78
2021/07/08 03:36:34;;;;;;;1.00;0.90;;;15.60;93.70;;;19.18;78.29;101866.28;5002555;28;97810;-77
2021/07/08 03:39:06;;;;;;;2.25;0.93;;;15.60;93.90;;;19.14;78.78;101865.31;5026317;27;96873;-77
2021/07/08 03:41:44;;;;;;;2.08;1.88;;;15.60;93.70;;;19.11;78.24;101858.66;5005077;28;97264;-78
2021/07/08 03:44:16;;;;;;;0.40;0.30;;;15.60;93.70;;;19.20;77.97;101877.63;5008339;28;97565;-76
2021/07/08 03:46:45;;;;;;;1.10;0.43;;;15.60;93.60;;;19.17;78.21;101872.84;5004676;28;96760;-76
2021/07/08 03:49:15;;;;;;;0.63;0.63;;;15.50;93.60;;;19.19;77.76;101878.75;5025335;27;97035;-76
2021/07/08 03:51:43;;;;;;;2.28;1.80;;;15.50;93.70;;;19.19;78.04;101878.75;5003014;28;97040;-76
2021/07/08 03:54:12;;;;;;;0.98;0.95;;;15.50;93.70;;;19.17;77.92;101878.28;5005983;28;97044;-76
2021/07/08 03:56:42;;;;;;;0.10;0.10;;;15.50;93.70;;;19.26;77.77;101874.38;5007954;28;97776;-76
2021/07/08 03:59:11;;;;;;;1.00;0.88;;;15.60;94.00;;;19.27;78.69;101870.53;5007019;28;97335;-76
2021/07/08 04:01:41;;;;;;;0.52;0.52;;;15.60;93.70;;;19.35;78.31;101871.59;5004623;28;97268;-76
2021/07/08 04:04:10;;;;;;;1.63;1.52;;;15.60;93.70;;;19.32;77.73;101883.13;5006662;28;100088;-76
2021/07/08 04:06:38;;;;;;;1.55;1.00;;;15.60;93.60;;;19.35;78.19;101885.97;5008281;28;96903;-76
2021/07/08 04:09:08;;;;;;;1.00;0.60;;;15.60;93.60;;;19.42;77.81;101882.72;5002694;28;96923;-76
2021/07/08 04:11:37;;;;;;;1.88;0.98;;;15.60;93.60;;;19.43;78.00;101887.84;5007793;28;97403;-76
2021/07/08 04:14:07;;;;;;;23.63;1.88;;;15.70;93.60;;;19.49;77.83;101882.97;4989234;28;97568;-76
2021/07/08 04:16:36;;;;;;;0.35;0.35;;;15.70;93.60;;;19.56;77.20;101883.25;5002423;28;97853;-76
2021/07/08 04:19:05;;;;;;;3.03;1.77;;;15.70;93.60;;;19.63;77.34;101894.38;5024273;27;96830;-76
2021/07/08 04:21:34;;;;;;;4.07;1.02;;;15.80;93.60;;;19.57;77.88;101893.78;5009087;28;97430;-76
2021/07/08 04:24:06;;;;;;;0.98;0.77;;;15.80;93.60;;;19.65;77.51;101897.56;5004104;28;97898;-76
2021/07/08 04:26:35;;;;;;;1.50;1.40;;;15.80;93.50;;;19.72;77.25;101895.91;5006691;28;97177;-76
2021/07/08 04:29:05;;;;;;;0.68;0.68;;;15.90;93.60;;;19.70;77.49;101883.75;5019631;28;96916;-76
2021/07/08 04:31:34;;;;;;;1.55;0.95;;;15.90;93.50;;;19.80;77.26;101886.03;5008625;28;96952;-76
2021/07/08 04:34:04;;;;;;;5.53;0.95;;;15.90;93.50;;;19.81;76.99;101885.72;5007036;28;98089;-76
2021/07/08 04:36:33;;;;;;;0.40;0.40;;;16.00;93.50;;;19.77;77.25;101892.97;5003337;28;97811;-76
2021/07/08 04:39:04;;;;;;;1.23;0.85;;;16.00;93.50;;;19.86;77.42;101893.66;4987882;28;97167;-76
2021/07/08 04:41:33;;;;;;;1.25;1.15;;;16.00;93.50;;;19.99;77.80;101898.03;5006944;28;96941;-76
2021/07/08 04:44:02;;;;;;;0.43;0.25;;;16.10;93.50;;;20.05;77.64;101898.63;4999584;28;97838;-76
2021/07/08 04:46:33;;;;;;;2.83;1.55;;;16.20;93.50;;;20.10;77.27;101901.13;5021408;28;97994;-76
2021/07/08 04:49:03;;;;;;;1.38;1.27;;;16.30;93.40;;;20.22;77.29;101909.31;5006649;28;97220;-76
2021/07/08 04:51:32;;;;;;;1.35;1.25;;;16.30;93.40;;;20.49;75.96;101917.63;5004884;28;96908;-76
2021/07/08 04:54:01;;;;;;;2.33;1.38;;;16.40;93.40;;;20.72;76.73;101911.44;5008189;28;96703;-77
2021/07/08 04:56:32;;;;;;;0.63;0.63;;;16.60;93.30;;;21.16;75.08;101912.41;5004605;28;97634;-76
2021/07/08 04:59:04;;;;;;;14.38;2.45;;;16.80;93.10;;;21.41;75.15;101908.47;5007319;28;96892;-76
2021/07/08 05:01:34;;;;;;;2.35;1.27;;;17.10;92.90;;;21.57;74.12;101912.09;5007946;28;96914;-76
2021/07/08 05:04:05;;;;;;;1.08;1.00;;;17.30;92.60;;;21.73;74.39;101911.03;5005893;28;97884;-76
2021/07/08 05:06:34;;;;;;;0.60;0.60;;;17.50;92.40;;;21.88;74.16;101918.44;5007573;28;98174;-76
2021/07/08 05:09:05;;;;;;;0.52;0.43;;;17.70;92.30;;;21.99;74.35;101921.47;5004071;28;97289;-76
2021/07/08 05:11:33;;;;;;;0.95;0.75;;;17.80;92.30;;;22.09;74.15;101919.03;5004467;28;97158;-76
2021/07/08 05:14:04;;;;;;;1.85;1.70;;;17.90;92.20;;;22.20;74.04;101919.31;5002955;28;98898;-76
2021/07/08 05:16:34;;;;;;;5.72;1.35;;;18.00;92.20;;;22.26;74.01;101922.22;5003462;28;96835;-76
2021/07/08 05:19:06;;;;;;;2.25;1.17;;;18.20;92.20;;;22.67;73.29;101924.47;5022989;27;96955;-76
2021/07/08 05:21:34;;;;;;;1.95;1.40;;;18.30;92.10;;;22.86;72.91;101926.47;5006159;28;96844;-76
2021/07/08 05:24:05;;;;;;;1.25;0.80;;;18.60;91.80;;;22.95;72.96;101930.56;5021381;27;97779;-76
2021/07/08 05:26:34;;;;;;;2.03;1.42;;;18.70;91.70;;;23.08;72.77;101934.00;5004932;28;97162;-76
2021/07/08 05:29:04;;;;;;;1.05;0.90;;;18.80;91.70;;;23.22;72.80;101937.09;5027269;27;96925;-76
2021/07/08 05:31:34;;;;;;;0.75;0.57;;;18.90;91.70;;;23.38;72.74;101935.09;5006380;28;96931;-77
2021/07/08 05:34:04;;;;;;;0.65;0.65;;;19.10;91.70;;;23.66;72.06;101930.19;5002268;28;98047;-77
2021/07/08 05:36:33;;;;;;;1.80;0.73;;;19.20;91.60;;;24.68;69.73;101928.22;4986754;28;97060;-77
2021/07/08 05:39:05;;;;;;;6.90;1.98;;;19.50;91.40;;;26.09;64.89;101938.00;5003022;28;96741;-77
2021/07/08 05:41:35;;;;;;;1.25;0.75;;;19.90;91.10;;;25.83;67.00;101929.91;5033644;27;96981;-76
2021/07/08 05:44:05;;;;;;;0.70;0.70;;;20.30;91.00;;;25.89;67.00;101937.41;5005386;28;96883;-77
2021/07/08 05:46:35;;;;;;;1.13;1.02;;;20.60;90.80;;;26.34;66.99;101931.59;5002056;28;97113;-76
2021/07/08 05:49:04;;;;;;;1.20;0.95;;;21.00;90.50;;;26.87;66.38;101934.81;5004910;28;97092;-77
2021/07/08 05:51:33;;;;;;;1.77;1.10;;;21.40;90.20;;;27.41;65.40;101930.84;4999509;28;96953;-76
2021/07/08 05:54:03;;;;;;;17.15;1.58;;;21.90;89.80;;;27.38;66.08;101934.38;5004654;28;97942;-77
2021/07/08 05:56:32;;;;;;;1.92;1.58;;;22.50;88.40;;;28.04;65.26;101931.06;5004789;28;97790;-76
2021/07/08 05:59:01;;;;;;;3.13;1.15;;;23.00;87.40;;;28.74;64.16;101931.13;5004423;28;96877;-76
2021/07/08 06:01:32;;;;;;;5.15;1.38;;;23.30;86.80;;;29.31;63.12;101933.44;4987996;28;97377;-76
2021/07/08 06:04:05;;;;;;;1.00;0.90;;;23.90;86.30;;;29.97;61.77;101931.56;5006231;28;97159;-76
2021/07/08 06:06:34;;;;;;;2.17;1.02;;;24.70;85.20;;;31.03;59.49;101924.78;4989521;28;98295;-76
2021/07/08 06:09:05;;;;;;;1.48;1.25;;;25.70;82.80;;;31.17;60.19;101922.69;5004334;28;96894;-76
2021/07/08 06:11:34;;;;;;;0.90;0.90;;;26.20;81.40;;;31.84;59.11;101928.22;5004210;28;96955;-76
2021/07/08 06:14:04;;;;;;;4.13;0.88;;;26.80;80.80;;;32.86;57.46;101930.94;5002141;28;96945;-76
2021/07/08 06:16:33;;;;;;;1.83;1.52;;;27.50;79.70;;;33.88;55.78;101934.47;5000862;28;98201;-76
2021/07/08 06:19:05;;;;;;;1.15;0.90;;;28.30;78.50;;;35.62;52.30;101927.16;5035577;27;98180;-76
2021/07/08 06:21:34;;;;;;;5.20;1.25;;;29.50;76.50;;;37.75;48.64;101919.78;5010492;28;97539;-77
2021/07/08 06:24:03;;;;;;;0.82;0.82;;;31.10;73.90;;;39.38;45.86;101922.44;5003302;28;98129;-76
2021/07/08 06:26:31;;;;;;;1.48;1.25;;;32.70;71.60;;;40.03;45.81;101912.09;5004108;28;96845;-77
2021/07/08 06:29:00;;;;;;;1.42;1.00;;;33.70;69.70;;;40.06;46.83;101916.75;5003678;28;96819;-76
2021/07/08 06:31:34;;;;;;;0.88;0.60;;;34.20;69.00;;;40.19;47.80;101917.31;4998960;28;97089;-76
2021/07/08 06:34:07;;;;;;;2.17;1.45;;;34.60;69.10;;;41.53;46.03;101912.63;4998946;28;98045;-76
2021/07/08 06:36:36;;;;;;;2.33;1.23;;;35.40;68.30;;;42.18;45.37;101902.91;5003009;28;100743;-77
2021/07/08 06:39:06;;;;;;;7.25;1.70;;;36.20;67.60;;;42.75;45.18;101901.88;5001786;28;96828;-77
2021/07/08 06:41:36;;;;;;;6.80;0.85;;;36.80;67.20;;;42.33;46.22;101904.38;5004046;28;97320;-76
2021/07/08 06:44:05;;;;;;;22.95;1.10;;;36.80;67.50;;;42.00;47.76;101875.72;5004473;28;96841;-75
2021/07/08 06:46:34;;;;;;;1.70;1.02;;;36.70;68.30;;;43.06;46.50;101848.34;5005151;28;97059;-77
2021/07/08 06:49:08;;;;;;;1.17;0.85;;;37.30;68.10;;;43.51;45.82;101831.28;5006131;28;96711;-76
2021/07/08 06:51:37;;;;;;;26.75;1.95;;;37.70;67.70;;;45.06;43.63;101830.66;5006354;28;96816;-76
2021/07/08 06:54:06;;;;;;;0.73;0.73;;;38.70;66.90;;;46.15;42.24;101812.72;5015962;28;98135;-77
2021/07/08 06:56:35;;;;;;;0.70;0.70;;;39.60;65.70;;;47.83;38.95;101799.78;5037462;27;97542;-76
2021/07/08 06:59:08;;;;;;;0.95;0.95;;;40.70;64.50;;;48.76;38.92;101891.72;4985685;28;97465;-77
2021/07/08 07:01:37;;;;;;;0.50;0.50;;;41.60;63.10;;;47.72;40.94;101901.50;5003327;28;97014;-78
2021/07/08 07:04:08;;;;;;;1.27;0.85;;;41.60;62.70;;;48.99;39.14;101910.78;5003819;28;96922;-78
2021/07/08 07:06:36;;;;;;;1.55;1.00;;;42.10;63.30;;;49.96;37.76;101865.31;5002459;28;97763;-77
2021/07/08 07:09:05;;;;;;;0.22;0.22;;;42.80;62.80;;;50.75;37.77;101794.03;4988465;28;97213;-78
2021/07/08 07:11:34;;;;;;;11.15;1.17;;;43.50;62.70;;;51.28;37.01;101817.34;5006916;28;96895;-79
2021/07/08 07:14:05;;;;;;;6.32;1.27;;;44.00;62.40;;;51.49;37.01;101826.69;4985359;28;97889;-78
2021/07/08 07:16:34;;;;;;;7.45;1.42;;;44.40;61.00;;;51.46;36.34;101828.56;5000621;28;97772;-78
2021/07/08 07:19:04;;;;;;;0.90;0.70;;;44.50;60.70;;;51.39;36.53;101843.56;5021764;27;96858;-78
2021/07/08 07:21:34;;;;;;;6.07;0.93;;;44.40;60.70;;;51.26;37.92;101849.34;5004899;28;96833;-76
2021/07/08 07:24:03;;;;;;;1.20;0.63;;;44.30;62.30;;;51.70;37.83;101867.47;5010291;28;98071;-77
2021/07/08 07:26:33;;;;;;;2.15;1.02;;;44.40;62.80;;;51.15;39.12;101872.50;5003802;28;97779;-76
2021/07/08 07:29:06;;;;;;;0.82;0.65;;;44.30;63.40;;;51.57;38.36;101858.94;5003254;28;97499;-77
2021/07/08 07:31:35;;;;;;;0.68;0.47;;;44.30;63.50;;;52.02;38.06;101874.31;5005133;28;96830;-78
2021/07/08 07:34:07;;;;;;;1.25;0.88;;;44.60;63.30;;;51.82;38.37;101877.25;5001301;28;97541;-77
2021/07/08 07:36:38;;;;;;;3.80;1.55;;;44.40;63.60;;;52.80;36.28;101868.53;5005217;28;97731;-81
2021/07/08 07:39:10;;;;;;;2.28;0.93;;;44.70;63.10;;;53.34;35.69;101879.50;5027828;28;96851;-79
2021/07/08 07:41:39;;;;;;;2.53;0.45;;;45.00;62.60;;;54.52;34.16;101882.69;4983840;28;97312;-78
2021/07/08 07:44:24;;;;;;;2.28;0.77;;;45.40;62.70;;;55.12;32.76;101876.56;5006198;28;96736;-78
2021/07/08 07:46:55;;;;;;;1.60;0.60;;;45.80;61.20;;;55.32;32.73;101880.41;5012876;28;97961;-78
2021/07/08 07:49:25;;;;;;;2.85;0.80;;;46.00;61.80;;;55.52;32.84;101885.03;5010994;28;96748;-77
2021/07/08 07:51:55;;;;;;;0.40;0.30;;;46.20;62.00;;;55.87;32.73;101875.84;5005268;28;97183;-76
2021/07/08 07:54:24;;;;;;;0.85;0.55;;;46.30;62.40;;;56.24;32.10;101874.63;5006708;28;98109;-76
2021/07/08 07:56:52;;;;;;;2.80;1.13;;;46.40;62.50;;;56.71;31.48;101869.19;4988030;28;99615;-76
2021/07/08 07:59:24;;;;;;;0.68;0.50;;;46.60;62.30;;;56.69;31.14;101868.28;5026293;28;97417;-76
2021/07/08 08:01:53;;;;;;;0.60;0.60;;;46.70;62.00;;;57.02;30.79;101873.13;5014558;28;96909;-76
2021/07/08 08:04:23;;;;;;;0.38;0.38;;;46.80;62.20;;;57.35;30.58;101874.28;5005913;28;97585;-76
2021/07/08 08:09:41;;;;;;;1.27;0.57;;;47.10;62.80;;;57.58;30.79;101863.09;5008542;28;97295;-75
2021/07/08 08:12:11;;;;;;;3.95;0.63;;;47.30;62.90;;;57.41;30.80;101856.69;5007384;28;96591;-76
2021/07/08 08:14:40;;;;;;;0.93;0.70;;;47.20;63.10;;;57.78;30.29;101863.91;5002515;28;97964;-76
2021/07/08 08:17:10;;;;;;;1.58;1.48;;;47.20;63.20;;;57.64;30.78;101857.78;5004287;28;98021;-75
2021/07/08 08:19:39;;;;;;;1.33;0.52;;;47.10;63.50;;;58.02;30.09;101854.91;5009126;28;96802;-75
2021/07/08 08:22:10;;;;;;;3.58;0.52;;;47.10;63.70;;;58.00;30.14;101855.53;5004044;28;96974;-76
2021/07/08 08:24:41;;;;;;;0.77;0.33;;;47.10;63.60;;;58.05;30.54;101859.50;5003167;28;98178;-76
2021/07/08 08:27:09;;;;;;;4.47;1.48;;;47.00;64.10;;;58.02;30.23;101866.47;5006275;28;97744;-75
2021/07/08 08:29:40;;;;;;;1.05;0.73;;;46.90;64.00;;;57.86;30.56;101864.53;4985838;28;96910;-76
2021/07/08 08:32:10;;;;;;;0.10;0.10;;;46.80;63.90;;;57.54;31.10;101867.84;5003921;28;96714;-76
2021/07/08 08:34:46;;;;;;;7.55;0.73;;;46.70;64.50;;;57.52;31.16;101871.31;5004550;28;96827;-74
2021/07/08 08:37:15;;;;;;;0.22;0.17;;;46.50;63.80;;;57.18;31.36;101877.31;4995034;28;97519;-74
2021/07/08 08:39:45;;;;;;;4.07;0.52;;;46.30;64.90;;;56.85;32.25;101873.19;5004758;28;97081;-74
2021/07/08 08:42:15;;;;;;;0.15;0.10;;;46.00;64.80;;;56.45;32.55;101872.81;5033986;27;97147;-75
2021/07/08 08:44:44;;;;;;;0.20;0.20;;;45.70;65.00;;;56.36;32.35;101881.41;4999227;28;97886;-76
2021/07/08 08:47:13;;;;;;;0.57;0.43;;;45.60;65.60;;;56.20;33.05;101872.19;5003026;28;97951;-71
2021/07/08 08:49:43;;;;;;;0.73;0.43;;;45.40;65.70;;;55.95;33.44;101867.88;4994749;28;97515;-76
2021/07/08 08:52:14;;;;;;;0.32;0.32;;;45.30;66.00;;;55.71;33.68;101867.97;4999542;28;96957;-76
2021/07/08 08:54:45;;;;;;;0.10;0.10;;;45.20;66.30;;;55.51;34.69;101863.34;5017097;27;98064;-76
2021/07/08 08:57:14;;;;;;;1.50;1.20;;;45.00;66.50;;;55.09;34.65;101860.44;5017336;27;96912;-77
2021/07/08 08:59:43;;;;;;;0.50;0.50;;;44.80;66.50;;;54.32;35.82;101852.13;5000117;28;97056;-77
2021/07/08 09:02:17;;;;;;;1.58;0.82;;;44.60;66.80;;;53.32;38.14;101856.38;5034561;27;96794;-77
2021/07/08 09:04:46;;;;;;;0.47;0.38;;;44.30;67.20;;;52.17;39.99;101851.50;4983452;28;96965;-74
2021/07/08 09:07:25;;;;;;;0.77;0.50;;;43.90;68.20;;;51.78;40.83;101836.78;5034902;27;99735;-74
2021/07/08 09:09:57;;;;;;;5.18;0.63;;;43.40;67.90;;;52.55;39.07;101838.09;5000361;28;96830;-74
2021/07/08 09:12:28;;;;;;;0.52;0.52;;;43.20;68.70;;;51.13;40.61;101831.53;5017432;27;97149;-74
2021/07/08 09:15:17;;;;;;;8.52;0.52;;;42.90;68.00;;;50.10;42.12;101835.50;4999246;28;96944;-74
2021/07/08 09:17:48;;;;;;;0.43;0.38;;;42.40;67.70;;;48.22;44.46;101831.41;4999652;28;96912;-74
2021/07/08 09:20:21;;;;;;;3.60;0.88;;;41.70;68.20;;;46.99;46.67;101823.88;5017821;27;97284;-72
2021/07/08 09:22:50;;;;;;;1.60;0.63;;;41.00;69.80;;;46.27;49.17;101816.31;5001066;28;99355;-74
2021/07/08 09:25:27;;;;;;;1.60;0.43;;;40.50;70.80;;;45.45;50.30;101817.25;5016684;27;96869;-73
2021/07/08 09:28:22;;;;;;;0.50;0.40;;;40.00;71.50;;;44.76;51.76;101829.59;5014348;27;96929;-73
2021/07/08 09:31:04;;;;;;;0.55;0.35;;;39.50;71.60;;;45.37;49.56;101828.38;5002107;28;96750;-73
2021/07/08 09:33:40;;;;;;;0.98;0.88;;;39.20;72.20;;;44.81;50.42;101830.91;5000860;28;97731;-73
2021/07/08 09:36:14;;;;;;;0.90;0.77;;;38.80;72.80;;;46.34;46.63;101836.38;5000407;28;97144;-73
2021/07/08 09:38:58;;;;;;;0.75;0.70;;;38.60;73.20;;;47.51;43.75;101841.47;5015928;27;97717;-74
2021/07/08 09:41:29;;;;;;;7.68;0.85;;;38.70;73.40;;;47.98;42.83;101847.72;5001378;28;96873;-76
2021/07/08 09:43:58;;;;;;;1.02;0.45;;;38.80;73.30;;;48.20;42.69;101853.91;4996118;28;96787;-76
2021/07/08 09:46:37;;;;;;;0.88;0.52;;;39.00;73.10;;;48.15;42.94;101842.59;4998060;28;97949;-76
2021/07/08 09:49:11;;;;;;;1.92;0.17;;;39.20;72.80;;;48.37;43.23;101854.47;4997725;28;97786;-76
2021/07/08 09:51:44;;;;;;;0.35;0.30;;;39.30;73.30;;;46.49;47.36;101844.56;4994581;28;97255;-75
2021/07/08 09:54:16;;;;;;;0.77;0.50;;;39.40;73.50;;;46.06;48.73;101843.44;4997580;28;97043;-75
2021/07/08 09:56:50;;;;;;;4.63;1.30;;;39.20;74.00;;;45.86;49.18;101838.88;4999491;28;97364;-75
2021/07/08 09:59:21;;;;;;;1.20;1.10;;;39.00;73.80;;;43.79;53.28;101831.47;5000535;28;96821;-76
2021/07/08 10:01:59;;;;;;;0.20;0.20;;;38.80;73.90;;;41.79;57.17;101837.53;4966134;28;97219;-76
2021/07/08 10:04:30;;;;;;;0.65;0.10;;;38.10;73.50;;;40.16;60.26;101838.81;4996486;28;97146;-75
2021/07/08 10:06:59;;;;;;;5.00;1.10;;;37.30;74.00;;;39.02;62.27;101854.38;4995618;28;98370;-75
2021/07/08 10:09:30;;;;;;;0.35;0.32;;;36.50;75.20;;;38.28;63.61;101866.00;5031991;27;97623;-74
2021/07/08 10:12:01;;;;;;;0.28;0.28;;;35.70;76.00;;;37.67;63.79;101863.31;4999164;28;97004;-74
2021/07/08 10:14:33;;;;;;;;;;;35.00;76.40;;;36.97;65.08;101876.38;5001599;28;97509;-73
2021/07/08 10:17:07;;;;;;;0.40;0.40;;;34.40;76.10;;;36.54;65.37;101875.53;5012806;27;97756;-74
2021/07/08 10:19:37;;;;;;;2.78;1.60;;;33.80;77.40;;;36.27;65.16;101884.41;4996188;28;96827;-75
2021/07/08 10:22:08;;;;;;;0.20;0.20;;;33.30;78.30;;;35.97;65.50;101893.34;4996617;28;96859;-72
2021/07/08 10:24:38;;;;;;;0.13;0.13;;;32.90;78.90;;;35.60;66.24;101887.75;5000387;28;96864;-73
2021/07/08 10:27:09;;;;;;;1.10;0.75;;;32.50;79.50;;;35.44;65.73;101887.03;4996220;28;96985;-77
2021/07/08 10:29:41;;;;;;;0.73;0.20;;;32.20;79.20;;;35.54;64.53;101888.72;5002952;28;97808;-77